Dallas, Texas
Traffic Map
Current Weather Conditions
Dallas, Texas
Few Clouds
Few Clouds
65°
Feels Like: 65°
Wind Chill: 65° Ceiling: Unl
Heat Index: 65° Visibility: 10mi
Dew Point: 52° Wind: 0mph
Humidity: 63% Direction: ° ()
Pressure: 30.05in Gusts: 0mph
Raw Report DataKDAL 060453Z 00000KT 10SM FEW300 18/11 A3005 RMK AO2 SLP170 T01830111 $
Traffic Incident Summary
Active as of:
Severity:
Category:
InformationThere was an issue retrieving the traffic information for this location. Please try a different location or try again shortly.
Advertisements
Track Severe Weather on mobile